Time;durP1;ratioP1;P1;durP2;ratioP2;P2;SDS_P1;SDS_P2;PMS_P1;PMS_P2;Temp;Humidity;BMP_temperature;BMP_pressure;BME280_temperature;BME280_humidity;BME280_pressure;Samples;Min_cycle;Max_cycle;Signal;HPM_P1;HPM_P2
2022/01/19 00:01:23;;;;;;;87.00;30.98;;;;;;;;;;5069740;28;20071;-66
2022/01/19 00:03:49;;;;;;;71.75;26.25;;;;;;;;;;5072866;28;20395;-65
2022/01/19 00:06:15;;;;;;;83.28;26.55;;;;;;;;;;5076716;28;20043;-65
2022/01/19 00:08:41;;;;;;;77.65;28.38;;;;;;;;;;5070512;28;20032;-66
2022/01/19 00:11:07;;;;;;;78.55;28.40;;;;;;;;;;5071734;28;20037;-66
2022/01/19 00:13:33;;;;;;;75.45;26.77;;;;;;;;;;5071541;28;20483;-66
2022/01/19 00:15:59;;;;;;;77.55;28.38;;;;;;;;;;5077993;28;20039;-66
2022/01/19 00:18:26;;;;;;;80.20;27.15;;;;;;;;;;5072233;28;20657;-66
2022/01/19 00:20:53;;;;;;;81.32;29.38;;;;;;;;;;5072051;28;20079;-66
2022/01/19 00:23:19;;;;;;;84.57;26.90;;;;;;;;;;5068145;28;20481;-66
2022/01/19 00:25:47;;;;;;;74.07;28.00;;;;;;;;;;5066444;28;21918;-66
2022/01/19 00:28:13;;;;;;;77.88;27.70;;;;;;;;;;5072016;28;20407;-66
2022/01/19 00:30:39;;;;;;;82.32;27.50;;;;;;;;;;5072452;28;20083;-66
2022/01/19 00:33:05;;;;;;;76.63;26.48;;;;;;;;;;5071905;28;20166;-66
2022/01/19 00:35:35;;;;;;;75.50;27.52;;;;;;;;;;5072379;28;20405;-66
2022/01/19 00:38:01;;;;;;;70.43;26.45;;;;;;;;;;5065974;28;20040;-65
2022/01/19 00:40:27;;;;;;;64.95;24.65;;;;;;;;;;5071306;28;20033;-66
2022/01/19 00:42:53;;;;;;;69.57;25.58;;;;;;;;;;5070176;28;20043;-66
2022/01/19 00:45:19;;;;;;;75.35;25.55;;;;;;;;;;5066351;28;20124;-66
2022/01/19 00:47:45;;;;;;;66.97;23.40;;;;;;;;;;5071683;28;20040;-65
2022/01/19 00:50:12;;;;;;;61.80;23.75;;;;;;;;;;5072191;28;20036;-66
2022/01/19 00:52:38;;;;;;;63.50;23.00;;;;;;;;;;5071153;28;20456;-66
2022/01/19 00:55:06;;;;;;;65.53;23.55;;;;;;;;;;5072917;28;20039;-65
2022/01/19 00:57:32;;;;;;;69.38;23.58;;;;;;;;;;5069899;28;20041;-66
2022/01/19 00:59:58;;;;;;;60.47;23.55;;;;;;;;;;5071599;28;20123;-66
2022/01/19 01:02:24;;;;;;;67.88;23.08;;;;;;;;;;5072172;28;20040;-66
2022/01/19 01:04:49;;;;;;;59.63;22.08;;;;;;;;;;5069577;28;20431;-66
2022/01/19 01:07:15;;;;;;;55.03;20.65;;;;;;;;;;5067210;28;20037;-66
2022/01/19 01:09:41;;;;;;;57.75;19.65;;;;;;;;;;5111720;22;20040;-69
2022/01/19 01:12:20;;;;;;;52.63;20.70;;;;;;;;;;5112501;28;20027;-68
2022/01/19 01:20:17;;;;;;;61.75;22.08;;;;;;;;;;5091785;28;20050;-68
2022/01/19 01:22:43;;;;;;;56.53;20.23;;;;;;;;;;5090625;28;20485;-68
2022/01/19 01:25:09;;;;;;;44.95;19.45;;;;;;;;;;5094572;28;20485;-69
2022/01/19 01:27:36;;;;;;;57.00;20.50;;;;;;;;;;5101733;28;20118;-68
2022/01/19 01:30:02;;;;;;;55.75;20.13;;;;;;;;;;5108625;28;20042;-68
2022/01/19 01:32:28;;;;;;;50.72;19.40;;;;;;;;;;5098256;28;20035;-68
2022/01/19 01:34:54;;;;;;;51.95;19.05;;;;;;;;;;5098296;28;20062;-68
2022/01/19 01:37:20;;;;;;;49.38;19.88;;;;;;;;;;5105244;28;20031;-69
2022/01/19 01:39:46;;;;;;;45.33;16.67;;;;;;;;;;5103483;28;20554;-68
2022/01/19 01:42:17;;;;;;;53.65;18.77;;;;;;;;;;5097937;28;20035;-68
2022/01/19 01:44:46;;;;;;;48.47;18.20;;;;;;;;;;5091807;28;20088;-69
2022/01/19 01:47:13;;;;;;;43.95;17.52;;;;;;;;;;5102464;28;20047;-69
2022/01/19 01:53:16;;;;;;;44.95;18.08;;;;;;;;;;5111174;28;20043;-68
2022/01/19 01:55:14;;;;;;;50.30;20.20;;;;;;;;;;5094979;28;20081;-69
2022/01/19 01:57:42;;;;;;;53.63;20.23;;;;;;;;;;5108863;28;20039;-68
2022/01/19 02:00:10;;;;;;;46.70;18.05;;;;;;;;;;5109136;28;20412;-68
2022/01/19 02:02:36;;;;;;;49.03;18.15;;;;;;;;;;5103657;28;20044;-68
2022/01/19 02:05:03;;;;;;;48.63;18.40;;;;;;;;;;5092550;28;20504;-68
2022/01/19 02:10:01;;;;;;;44.17;17.35;;;;;;;;;;5100139;28;20052;-68
2022/01/19 02:23:37;;;;;;;63.33;21.08;;;;;;;;;;5096097;28;20516;-68
2022/01/19 02:26:10;;;;;;;49.08;19.83;;;;;;;;;;5101219;28;20075;-69
2022/01/19 02:29:00;;;;;;;53.13;20.73;;;;;;;;;;5108349;28;20039;-68
2022/01/19 02:40:10;;;;;;;94.65;24.63;;;;;;;;;;5058592;28;20185;-68
2022/01/19 02:40:19;;;;;;;84.82;23.35;;;;;;;;;;5111036;28;20090;-68
2022/01/19 02:43:07;;;;;;;121.28;24.23;;;;;;;;;;5114175;28;20605;-68
2022/01/19 02:51:05;;;;;;;125.85;24.50;;;;;;;;;;5103421;28;20515;-68
2022/01/19 02:53:33;;;;;;;182.93;27.10;;;;;;;;;;5106887;28;20036;-68
2022/01/19 02:55:59;;;;;;;211.30;29.55;;;;;;;;;;5099522;28;20034;-68
2022/01/19 02:58:25;;;;;;;139.68;24.88;;;;;;;;;;5099938;28;20028;-68
2022/01/19 03:08:54;;;;;;;194.52;26.27;;;;;;;;;;5103461;28;20072;-68
2022/01/19 03:11:24;;;;;;;79.32;19.13;;;;;;;;;;5104746;28;20039;-68
2022/01/19 03:13:50;;;;;;;148.13;22.38;;;;;;;;;;5114454;28;20039;-68
2022/01/19 03:16:19;;;;;;;129.57;19.40;;;;;;;;;;5105346;28;20089;-68
2022/01/19 03:18:45;;;;;;;159.60;20.35;;;;;;;;;;5112915;28;20039;-68
2022/01/19 03:21:12;;;;;;;136.88;20.90;;;;;;;;;;5105523;28;20122;-68
2022/01/19 03:23:37;;;;;;;108.93;18.95;;;;;;;;;;5096921;28;20758;-68
2022/01/19 03:26:06;;;;;;;72.35;17.77;;;;;;;;;;5100092;28;20096;-68
2022/01/19 03:28:32;;;;;;;76.32;17.67;;;;;;;;;;5111038;28;20047;-68
2022/01/19 03:30:59;;;;;;;60.20;18.30;;;;;;;;;;5114733;28;20036;-68
2022/01/19 03:33:25;;;;;;;76.47;16.40;;;;;;;;;;5115298;27;20035;-68
2022/01/19 03:35:51;;;;;;;72.93;18.13;;;;;;;;;;5112219;27;20514;-68
2022/01/19 03:38:17;;;;;;;162.43;22.80;;;;;;;;;;5110903;28;20078;-68
2022/01/19 03:40:43;;;;;;;67.63;18.13;;;;;;;;;;5114588;28;20043;-68
2022/01/19 03:43:09;;;;;;;61.10;17.73;;;;;;;;;;5112215;28;20147;-68
2022/01/19 03:45:36;;;;;;;86.63;19.10;;;;;;;;;;5095317;28;20044;-68
2022/01/19 03:48:20;;;;;;;49.25;16.73;;;;;;;;;;5105378;28;20127;-68
2022/01/19 03:50:46;;;;;;;68.35;17.40;;;;;;;;;;5111169;28;20051;-68
2022/01/19 03:53:12;;;;;;;63.25;16.35;;;;;;;;;;5113701;28;20040;-68
2022/01/19 03:55:38;;;;;;;63.53;17.83;;;;;;;;;;5104596;28;20390;-68
2022/01/19 03:58:04;;;;;;;78.25;17.63;;;;;;;;;;5096134;28;20117;-68
2022/01/19 04:00:34;;;;;;;70.47;17.55;;;;;;;;;;5093653;28;20054;-68
2022/01/19 04:03:01;;;;;;;71.75;17.73;;;;;;;;;;5093800;28;20549;-68
2022/01/19 04:05:41;;;;;;;87.97;17.85;;;;;;;;;;5097458;28;20044;-68
2022/01/19 04:08:07;;;;;;;65.00;16.65;;;;;;;;;;5104796;28;20039;-68
2022/01/19 04:10:33;;;;;;;52.58;16.40;;;;;;;;;;5099397;28;20032;-68
2022/01/19 04:13:09;;;;;;;62.95;17.13;;;;;;;;;;5098441;28;20382;-68
2022/01/19 04:15:36;;;;;;;46.03;15.82;;;;;;;;;;5094972;28;20040;-68
2022/01/19 04:18:03;;;;;;;71.40;18.08;;;;;;;;;;5104835;28;20498;-68
2022/01/19 04:20:29;;;;;;;50.10;17.45;;;;;;;;;;5113734;28;20126;-68
2022/01/19 04:22:55;;;;;;;59.33;17.90;;;;;;;;;;5111855;28;20474;-68
2022/01/19 04:25:21;;;;;;;48.33;18.25;;;;;;;;;;5092611;28;20047;-68
2022/01/19 04:27:47;;;;;;;43.05;18.27;;;;;;;;;;5110832;28;20100;-68
2022/01/19 04:30:14;;;;;;;60.92;17.40;;;;;;;;;;5112404;28;20044;-68
2022/01/19 04:35:17;;;;;;;56.83;17.27;;;;;;;;;;5102385;28;20485;-68
2022/01/19 04:48:59;;;;;;;63.22;18.20;;;;;;;;;;5111028;28;20122;-67
2022/01/19 05:04:50;;;;;;;44.90;17.10;;;;;;;;;;5099857;28;20069;-68
2022/01/19 05:07:23;;;;;;;46.85;17.70;;;;;;;;;;5102848;28;20031;-68
2022/01/19 05:15:19;;;;;;;72.72;19.75;;;;;;;;;;5101766;28;20044;-68
2022/01/19 05:17:45;;;;;;;106.15;21.98;;;;;;;;;;5101745;28;20046;-68
2022/01/19 05:20:12;;;;;;;125.78;22.30;;;;;;;;;;5099347;28;20039;-68
2022/01/19 05:22:38;;;;;;;166.40;23.40;;;;;;;;;;5104148;28;20048;-68
2022/01/19 05:25:04;;;;;;;106.10;23.00;;;;;;;;;;5106644;28;20400;-68
2022/01/19 05:27:31;;;;;;;79.20;20.80;;;;;;;;;;5106175;28;20059;-68
2022/01/19 05:29:57;;;;;;;87.15;23.20;;;;;;;;;;5105510;28;20115;-68
2022/01/19 05:32:23;;;;;;;57.25;22.33;;;;;;;;;;5104581;28;20035;-68
2022/01/19 05:34:49;;;;;;;60.42;23.65;;;;;;;;;;5102259;28;20040;-68
2022/01/19 05:37:15;;;;;;;56.78;22.33;;;;;;;;;;5111260;28;20084;-68
2022/01/19 05:39:41;;;;;;;55.85;21.77;;;;;;;;;;5109356;28;20572;-69
2022/01/19 05:42:14;;;;;;;56.78;22.23;;;;;;;;;;5106014;28;20074;-68
2022/01/19 05:44:40;;;;;;;60.50;22.58;;;;;;;;;;5094646;28;20040;-68
2022/01/19 05:47:06;;;;;;;58.55;22.65;;;;;;;;;;5106846;28;20256;-68
2022/01/19 05:49:32;;;;;;;78.55;23.42;;;;;;;;;;5109274;28;20062;-68
2022/01/19 05:51:58;;;;;;;63.67;22.92;;;;;;;;;;5106620;28;20489;-68
2022/01/19 05:54:24;;;;;;;98.85;23.65;;;;;;;;;;5104189;28;20032;-68
2022/01/19 05:56:52;;;;;;;97.00;24.17;;;;;;;;;;5103141;28;20032;-68
2022/01/19 05:59:19;;;;;;;84.10;22.27;;;;;;;;;;5104868;28;20042;-68
2022/01/19 06:01:45;;;;;;;71.80;21.80;;;;;;;;;;5103254;28;20079;-68
2022/01/19 06:04:11;;;;;;;154.82;24.10;;;;;;;;;;5106659;28;20128;-68
2022/01/19 06:06:38;;;;;;;80.10;21.80;;;;;;;;;;5103038;28;20040;-68
2022/01/19 06:09:10;;;;;;;75.50;20.75;;;;;;;;;;5111581;28;20051;-68
2022/01/19 06:11:36;;;;;;;55.05;20.23;;;;;;;;;;5107203;28;20050;-68
2022/01/19 06:14:02;;;;;;;76.78;22.10;;;;;;;;;;5112523;28;20115;-67
2022/01/19 06:16:28;;;;;;;51.42;21.08;;;;;;;;;;5107753;28;20128;-68
2022/01/19 06:18:54;;;;;;;60.15;21.92;;;;;;;;;;5109166;28;20043;-68
2022/01/19 06:21:20;;;;;;;58.42;22.92;;;;;;;;;;5108272;28;20038;-68
2022/01/19 06:23:46;;;;;;;56.45;23.25;;;;;;;;;;5113486;28;20093;-68
2022/01/19 06:26:12;;;;;;;54.00;23.25;;;;;;;;;;5105951;28;20035;-68
2022/01/19 06:28:38;;;;;;;61.35;23.65;;;;;;;;;;5104073;28;20044;-68
2022/01/19 06:31:06;;;;;;;59.45;22.60;;;;;;;;;;5110966;28;20114;-68
2022/01/19 06:33:32;;;;;;;59.20;23.30;;;;;;;;;;5107635;28;20038;-67
2022/01/19 06:35:58;;;;;;;54.58;22.65;;;;;;;;;;5110292;28;20035;-68
2022/01/19 06:38:24;;;;;;;53.83;21.88;;;;;;;;;;5108598;28;20461;-68
2022/01/19 06:40:50;;;;;;;48.55;21.35;;;;;;;;;;5106001;28;20036;-68
2022/01/19 06:43:16;;;;;;;56.97;22.70;;;;;;;;;;5112500;28;20059;-68
2022/01/19 06:45:42;;;;;;;49.10;20.88;;;;;;;;;;5105715;28;20536;-67
2022/01/19 06:48:08;;;;;;;48.58;20.98;;;;;;;;;;5111704;28;20149;-67
2022/01/19 06:50:34;;;;;;;44.42;19.33;;;;;;;;;;5110193;28;20043;-67
2022/01/19 06:53:00;;;;;;;53.53;21.17;;;;;;;;;;5105485;28;20050;-68
2022/01/19 06:55:26;;;;;;;51.25;20.55;;;;;;;;;;5097867;28;20521;-67
2022/01/19 06:57:52;;;;;;;43.30;19.25;;;;;;;;;;5107239;28;20031;-68
2022/01/19 07:00:18;;;;;;;45.38;20.35;;;;;;;;;;5109031;28;20115;-68
2022/01/19 07:02:44;;;;;;;49.80;21.73;;;;;;;;;;5112115;28;20100;-68
2022/01/19 07:05:10;;;;;;;50.13;21.42;;;;;;;;;;5101506;27;20040;-67
2022/01/19 07:07:37;;;;;;;50.17;20.80;;;;;;;;;;5107091;28;20091;-68
2022/01/19 07:10:03;;;;;;;43.00;21.42;;;;;;;;;;5111147;22;20048;-65
2022/01/19 07:12:30;;;;;;;50.85;22.63;;;;;;;;;;5073954;28;20043;-65
2022/01/19 07:14:56;;;;;;;52.22;22.15;;;;;;;;;;5075906;28;20039;-65
2022/01/19 07:17:22;;;;;;;56.78;23.73;;;;;;;;;;5091781;28;20031;-65
2022/01/19 07:19:48;;;;;;;49.80;22.10;;;;;;;;;;5087703;28;20036;-65
2022/01/19 07:22:15;;;;;;;48.95;22.52;;;;;;;;;;5083656;28;20401;-65
2022/01/19 07:24:42;;;;;;;48.95;22.13;;;;;;;;;;5085925;28;20055;-65
2022/01/19 07:27:08;;;;;;;49.67;20.50;;;;;;;;;;5085266;28;20131;-65
2022/01/19 07:29:34;;;;;;;49.47;23.35;;;;;;;;;;5083552;28;20162;-65
2022/01/19 07:32:00;;;;;;;51.08;22.55;;;;;;;;;;5093588;28;20024;-66
2022/01/19 07:34:26;;;;;;;47.08;22.20;;;;;;;;;;5088397;28;20123;-65
2022/01/19 07:36:56;;;;;;;50.40;22.23;;;;;;;;;;5091912;28;20040;-66
2022/01/19 07:39:23;;;;;;;48.92;22.48;;;;;;;;;;5089331;28;20126;-65
2022/01/19 07:41:50;;;;;;;47.05;21.73;;;;;;;;;;5092637;28;20039;-65
2022/01/19 07:44:16;;;;;;;45.75;23.10;;;;;;;;;;5091309;28;20532;-65
2022/01/19 07:46:42;;;;;;;48.28;23.50;;;;;;;;;;5092586;28;20044;-66
2022/01/19 07:49:08;;;;;;;50.97;23.15;;;;;;;;;;5092546;28;20040;-65
2022/01/19 07:51:34;;;;;;;49.58;23.40;;;;;;;;;;5089204;28;20059;-65
2022/01/19 07:54:00;;;;;;;48.75;23.30;;;;;;;;;;5092187;28;20036;-66
2022/01/19 07:56:26;;;;;;;52.55;23.08;;;;;;;;;;5088080;28;20089;-65
2022/01/19 07:58:52;;;;;;;50.88;24.38;;;;;;;;;;5091441;28;20036;-65
2022/01/19 08:01:19;;;;;;;51.33;25.67;;;;;;;;;;5091258;28;20062;-64
2022/01/19 08:03:45;;;;;;;51.30;24.48;;;;;;;;;;5093144;28;20092;-65
2022/01/19 08:06:11;;;;;;;53.70;23.83;;;;;;;;;;5098136;28;20032;-65
2022/01/19 08:08:37;;;;;;;48.58;24.08;;;;;;;;;;5085459;28;20051;-66
2022/01/19 08:11:04;;;;;;;55.05;25.73;;;;;;;;;;5086267;28;20496;-65
2022/01/19 08:13:30;;;;;;;50.38;24.50;;;;;;;;;;5085901;28;20393;-65
2022/01/19 08:15:56;;;;;;;48.50;25.40;;;;;;;;;;5088366;28;20097;-66
2022/01/19 08:18:22;;;;;;;45.92;23.92;;;;;;;;;;5087886;28;20040;-66
2022/01/19 08:20:48;;;;;;;51.97;26.25;;;;;;;;;;5080723;28;20058;-66
2022/01/19 08:23:14;;;;;;;46.63;24.77;;;;;;;;;;5088061;28;20039;-66
2022/01/19 08:25:40;;;;;;;50.53;25.67;;;;;;;;;;5088296;28;20492;-66
2022/01/19 08:28:06;;;;;;;52.08;25.13;;;;;;;;;;5088754;28;20541;-66
2022/01/19 08:30:32;;;;;;;51.65;26.92;;;;;;;;;;5087035;28;20093;-66
2022/01/19 08:32:58;;;;;;;59.65;27.73;;;;;;;;;;5088343;28;20497;-66
2022/01/19 08:35:24;;;;;;;47.45;26.70;;;;;;;;;;5088878;28;20042;-66
2022/01/19 08:37:50;;;;;;;56.70;27.33;;;;;;;;;;5088966;28;20036;-66
2022/01/19 08:40:16;;;;;;;52.55;26.88;;;;;;;;;;5089816;28;20119;-66
2022/01/19 08:42:42;;;;;;;48.33;25.88;;;;;;;;;;5087795;28;20122;-66
2022/01/19 08:45:09;;;;;;;50.92;26.40;;;;;;;;;;5082784;28;20580;-66
2022/01/19 08:47:39;;;;;;;52.83;27.63;;;;;;;;;;5082704;28;20044;-66
2022/01/19 08:50:07;;;;;;;43.93;22.10;;;;;;;;;;5091900;28;20127;-66
2022/01/19 08:52:34;;;;;;;55.63;28.67;;;;;;;;;;5084753;28;20106;-66
2022/01/19 08:55:00;;;;;;;56.50;27.45;;;;;;;;;;5083381;28;20392;-66
2022/01/19 08:57:26;;;;;;;52.90;28.45;;;;;;;;;;5070880;28;20035;-66
2022/01/19 08:59:52;;;;;;;54.35;28.67;;;;;;;;;;5091469;28;20156;-67
2022/01/19 09:02:18;;;;;;;56.92;29.60;;;;;;;;;;5091896;28;20071;-66
2022/01/19 09:04:45;;;;;;;53.47;27.25;;;;;;;;;;5090650;28;20043;-66
2022/01/19 09:07:11;;;;;;;61.47;29.50;;;;;;;;;;5085279;28;20036;-67
2022/01/19 09:09:37;;;;;;;61.13;30.10;;;;;;;;;;5092082;28;20043;-67
2022/01/19 09:12:03;;;;;;;56.20;29.20;;;;;;;;;;5089489;28;20058;-67
2022/01/19 09:14:31;;;;;;;57.80;29.30;;;;;;;;;;5090672;28;20051;-66
2022/01/19 09:16:57;;;;;;;60.75;30.00;;;;;;;;;;5092441;28;20036;-66
2022/01/19 09:19:23;;;;;;;58.47;28.33;;;;;;;;;;5090498;28;20096;-66
2022/01/19 09:21:50;;;;;;;60.80;29.98;;;;;;;;;;5092204;28;20107;-67
2022/01/19 09:24:16;;;;;;;60.72;29.67;;;;;;;;;;5091325;28;20583;-67
2022/01/19 09:26:42;;;;;;;53.22;27.38;;;;;;;;;;5086593;28;20074;-67
2022/01/19 09:29:08;;;;;;;57.13;28.23;;;;;;;;;;5091835;28;20505;-66
2022/01/19 09:31:35;;;;;;;55.67;29.30;;;;;;;;;;5092255;28;20036;-67
2022/01/19 09:34:09;;;;;;;55.55;28.73;;;;;;;;;;5086267;28;20036;-66
2022/01/19 09:36:36;;;;;;;63.35;30.48;;;;;;;;;;5096842;28;20078;-67
2022/01/19 09:39:06;;;;;;;62.85;30.33;;;;;;;;;;5092029;28;20040;-67
2022/01/19 09:41:32;;;;;;;62.33;31.08;;;;;;;;;;5089786;28;20052;-67
2022/01/19 09:43:58;;;;;;;60.50;30.67;;;;;;;;;;5091147;28;20043;-67
2022/01/19 09:46:26;;;;;;;69.13;32.15;;;;;;;;;;5091574;28;20059;-67
2022/01/19 09:48:52;;;;;;;67.13;32.47;;;;;;;;;;5084497;28;20047;-68
2022/01/19 09:51:41;;;;;;;63.45;30.67;;;;;;;;;;5090039;28;20040;-67
2022/01/19 09:54:07;;;;;;;64.55;31.50;;;;;;;;;;5093153;28;20036;-66
2022/01/19 09:56:33;;;;;;;69.90;31.90;;;;;;;;;;5097310;28;20028;-67
2022/01/19 09:58:59;;;;;;;68.82;31.83;;;;;;;;;;5078650;28;20066;-66
2022/01/19 10:01:26;;;;;;;71.20;32.65;;;;;;;;;;5089419;28;20068;-66
2022/01/19 10:03:52;;;;;;;62.83;29.13;;;;;;;;;;5088412;28;20051;-67
2022/01/19 10:06:19;;;;;;;68.57;31.80;;;;;;;;;;5096893;28;20032;-67
2022/01/19 10:08:54;;;;;;;65.63;31.85;;;;;;;;;;5087226;28;20528;-67
2022/01/19 10:17:02;;;;;;;71.30;33.45;;;;;;;;;;5090415;28;20040;-67
2022/01/19 10:19:28;;;;;;;78.05;35.55;;;;;;;;;;5082523;28;20046;-67
2022/01/19 10:21:57;;;;;;;66.70;32.40;;;;;;;;;;5080570;28;20130;-67
2022/01/19 10:24:38;;;;;;;75.10;32.80;;;;;;;;;;5087386;28;20097;-67
2022/01/19 10:27:19;;;;;;;78.40;34.90;;;;;;;;;;5084843;28;20066;-67
2022/01/19 10:29:45;;;;;;;79.40;35.75;;;;;;;;;;5086990;28;20108;-67
2022/01/19 10:32:11;;;;;;;87.40;36.92;;;;;;;;;;5079391;28;20028;-67
2022/01/19 10:34:37;;;;;;;77.82;33.20;;;;;;;;;;5083353;28;20039;-67
2022/01/19 10:37:05;;;;;;;86.75;37.13;;;;;;;;;;5082358;28;20119;-66
2022/01/19 10:39:49;;;;;;;85.18;37.92;;;;;;;;;;5071193;28;20036;-67
2022/01/19 10:42:17;;;;;;;85.03;37.97;;;;;;;;;;5080351;28;20040;-67
2022/01/19 10:44:44;;;;;;;87.22;37.75;;;;;;;;;;5089502;28;20043;-68
2022/01/19 10:47:11;;;;;;;89.63;39.70;;;;;;;;;;5085713;28;20477;-67
2022/01/19 10:49:49;;;;;;;92.88;39.28;;;;;;;;;;5090998;28;20044;-67
2022/01/19 10:52:27;;;;;;;87.88;38.70;;;;;;;;;;5091034;28;20097;-67
2022/01/19 10:54:53;;;;;;;94.22;38.85;;;;;;;;;;5088185;28;20036;-67
2022/01/19 10:57:19;;;;;;;99.40;39.97;;;;;;;;;;5089843;28;20029;-67
2022/01/19 10:59:45;;;;;;;94.38;37.63;;;;;;;;;;5092352;28;20040;-67
2022/01/19 11:02:12;;;;;;;102.43;39.80;;;;;;;;;;5085287;28;20055;-67
2022/01/19 11:04:39;;;;;;;95.82;40.47;;;;;;;;;;5093236;28;20047;-67
2022/01/19 11:07:05;;;;;;;99.15;39.20;;;;;;;;;;5101356;28;20040;-67
2022/01/19 11:09:32;;;;;;;91.10;39.63;;;;;;;;;;5094083;28;20097;-67
2022/01/19 11:12:02;;;;;;;97.60;38.90;;;;;;;;;;5094014;28;20047;-67
2022/01/19 11:14:28;;;;;;;100.90;41.45;;;;;;;;;;5092175;28;20502;-67
2022/01/19 11:16:54;;;;;;;99.15;41.58;;;;;;;;;;5087189;28;20127;-67
2022/01/19 11:19:21;;;;;;;99.43;38.83;;;;;;;;;;5093762;28;20035;-67
2022/01/19 11:22:06;;;;;;;110.45;42.78;;;;;;;;;;5089873;28;20047;-68
2022/01/19 11:24:35;;;;;;;98.18;42.28;;;;;;;;;;5088041;28;20043;-67
2022/01/19 11:27:02;;;;;;;100.38;41.65;;;;;;;;;;5088743;28;20035;-67
2022/01/19 11:29:30;;;;;;;106.70;41.25;;;;;;;;;;5089343;28;20039;-67
2022/01/19 11:31:56;;;;;;;107.90;42.22;;;;;;;;;;5092329;28;20111;-67
2022/01/19 11:34:40;;;;;;;105.60;39.35;;;;;;;;;;5091841;28;20070;-67
2022/01/19 11:37:06;;;;;;;107.90;41.15;;;;;;;;;;5081294;28;20059;-67
2022/01/19 11:39:32;;;;;;;117.35;44.38;;;;;;;;;;5091056;28;20516;-67
2022/01/19 11:41:59;;;;;;;103.03;42.75;;;;;;;;;;5090927;28;20044;-67
2022/01/19 11:44:31;;;;;;;114.72;44.85;;;;;;;;;;5091228;28;20039;-67
2022/01/19 11:46:58;;;;;;;109.60;44.92;;;;;;;;;;5089662;28;20040;-68
2022/01/19 11:49:44;;;;;;;111.78;43.10;;;;;;;;;;5092352;28;20400;-67
2022/01/19 11:52:10;;;;;;;121.13;44.63;;;;;;;;;;5079937;28;20128;-67
2022/01/19 11:54:36;;;;;;;105.05;42.72;;;;;;;;;;5089134;28;20114;-67
2022/01/19 11:57:06;;;;;;;123.85;44.25;;;;;;;;;;5084825;28;20066;-67
2022/01/19 11:59:47;;;;;;;121.50;46.28;;;;;;;;;;5091030;28;20051;-67
2022/01/19 12:02:26;;;;;;;107.38;41.45;;;;;;;;;;5089797;28;20044;-67
2022/01/19 12:04:54;;;;;;;113.13;44.55;;;;;;;;;;5081959;28;20062;-68
2022/01/19 12:07:39;;;;;;;106.20;38.88;;;;;;;;;;5089778;28;20044;-67
2022/01/19 12:10:07;;;;;;;112.97;42.38;;;;;;;;;;5088001;28;20040;-67
2022/01/19 12:12:39;;;;;;;114.55;44.35;;;;;;;;;;5093231;28;20032;-67
2022/01/19 12:15:08;;;;;;;113.07;44.67;;;;;;;;;;5089560;28;20036;-67
2022/01/19 12:17:54;;;;;;;108.63;43.30;;;;;;;;;;5095491;28;20031;-67
2022/01/19 12:20:38;;;;;;;99.97;41.15;;;;;;;;;;5092939;28;20089;-67
2022/01/19 12:23:43;;;;;;;110.18;43.90;;;;;;;;;;5087715;28;20043;-67
2022/01/19 12:26:10;;;;;;;105.53;38.63;;;;;;;;;;5001764;28;20053;-68
2022/01/19 12:28:38;;;;;;;107.47;43.35;;;;;;;;;;5010311;28;20117;-67
2022/01/19 12:31:23;;;;;;;110.22;42.47;;;;;;;;;;5047045;28;20044;-67
2022/01/19 12:34:10;;;;;;;94.53;39.85;;;;;;;;;;5090663;28;20040;-67
2022/01/19 12:36:43;;;;;;;103.63;41.33;;;;;;;;;;5091466;28;20047;-67
2022/01/19 12:39:25;;;;;;;95.55;40.70;;;;;;;;;;5091598;28;20131;-67
2022/01/19 12:41:51;;;;;;;;;;;;;;;;;;5092174;28;20068;-67
2022/01/19 12:44:35;;;;;;;103.13;41.42;;;;;;;;;;5086010;28;19963;-67
2022/01/19 12:47:05;;;;;;;100.20;41.47;;;;;;;;;;5085232;28;20059;-67
2022/01/19 12:49:31;;;;;;;99.50;41.35;;;;;;;;;;5090158;28;20032;-68
2022/01/19 12:51:58;;;;;;;102.50;42.50;;;;;;;;;;5087681;28;20052;-67
2022/01/19 12:54:28;;;;;;;97.95;41.15;;;;;;;;;;5089742;28;20043;-67
2022/01/19 12:57:05;;;;;;;103.72;41.67;;;;;;;;;;5089404;28;20036;-67
2022/01/19 12:59:33;;;;;;;99.03;40.25;;;;;;;;;;5081759;28;20041;-67
2022/01/19 13:01:59;;;;;;;89.70;37.72;;;;;;;;;;5085595;28;20378;-67
2022/01/19 13:04:30;;;;;;;103.00;43.75;;;;;;;;;;5087951;28;20258;-67
2022/01/19 13:06:57;;;;;;;96.07;39.85;;;;;;;;;;5092622;28;20051;-67
2022/01/19 13:09:34;;;;;;;100.60;41.70;;;;;;;;;;5090669;22;20509;-71
2022/01/19 13:12:11;;;;;;;103.25;42.72;;;;;;;;;;5062770;28;20450;-72
2022/01/19 13:14:37;;;;;;;99.30;38.65;;;;;;;;;;5062368;28;20071;-71
2022/01/19 13:17:03;;;;;;;113.72;43.92;;;;;;;;;;5065300;28;20079;-72
2022/01/19 13:19:29;;;;;;;93.15;39.90;;;;;;;;;;5052138;28;20049;-71
2022/01/19 13:22:02;;;;;;;98.60;41.45;;;;;;;;;;5065658;28;20591;-73
2022/01/19 13:24:31;;;;;;;95.38;37.38;;;;;;;;;;5055679;28;20146;-73
2022/01/19 13:26:59;;;;;;;101.40;42.08;;;;;;;;;;5066186;28;20060;-72
2022/01/19 13:29:27;;;;;;;101.10;42.08;;;;;;;;;;5059620;28;20518;-71
2022/01/19 13:31:54;;;;;;;99.50;42.17;;;;;;;;;;5064660;28;20036;-71
2022/01/19 13:34:20;;;;;;;89.78;40.33;;;;;;;;;;5061194;28;20086;-72
2022/01/19 13:36:52;;;;;;;89.07;36.78;;;;;;;;;;5064125;28;20041;-71
2022/01/19 13:39:20;;;;;;;94.97;41.67;;;;;;;;;;5071836;28;20123;-71
2022/01/19 13:41:46;;;;;;;88.50;39.75;;;;;;;;;;5068151;28;20040;-71
2022/01/19 13:44:15;;;;;;;90.47;38.83;;;;;;;;;;5057545;28;20086;-71
2022/01/19 13:46:41;;;;;;;98.80;41.45;;;;;;;;;;5058250;28;20048;-71
2022/01/19 13:49:08;;;;;;;83.10;34.72;;;;;;;;;;5069790;28;20112;-72
2022/01/19 13:51:37;;;;;;;93.57;40.38;;;;;;;;;;5051815;28;20098;-72
2022/01/19 13:54:06;;;;;;;91.97;41.78;;;;;;;;;;5061360;28;20036;-71
2022/01/19 13:56:37;;;;;;;94.03;39.33;;;;;;;;;;5062375;28;20375;-72
2022/01/19 13:59:03;;;;;;;82.57;35.47;;;;;;;;;;5069715;28;20036;-72
2022/01/19 14:01:36;;;;;;;84.95;37.17;;;;;;;;;;5065300;28;20051;-72
2022/01/19 14:04:06;;;;;;;87.63;35.60;;;;;;;;;;5054674;28;20037;-71
2022/01/19 14:06:32;;;;;;;78.13;38.40;;;;;;;;;;5067572;28;20115;-71
2022/01/19 14:09:15;;;;;;;85.88;38.17;;;;;;;;;;5070540;28;20385;-71
2022/01/19 14:11:43;;;;;;;87.03;39.38;;;;;;;;;;5068276;28;20453;-72
2022/01/19 14:14:10;;;;;;;83.60;36.35;;;;;;;;;;5066019;28;20094;-72
2022/01/19 14:16:39;;;;;;;93.90;38.15;;;;;;;;;;5058545;28;20045;-72
2022/01/19 14:19:05;;;;;;;88.78;38.50;;;;;;;;;;5067722;28;20056;-72
2022/01/19 14:21:32;;;;;;;82.47;37.70;;;;;;;;;;5067209;28;20123;-71
2022/01/19 14:23:59;;;;;;;83.95;36.80;;;;;;;;;;5057332;28;20036;-71
2022/01/19 14:26:25;;;;;;;85.72;40.88;;;;;;;;;;5058767;28;20064;-70
2022/01/19 14:29:09;;;;;;;87.10;37.92;;;;;;;;;;5065792;28;20065;-72
2022/01/19 14:31:46;;;;;;;85.22;38.80;;;;;;;;;;5062684;28;20049;-71
2022/01/19 14:34:12;;;;;;;86.60;36.00;;;;;;;;;;5064278;28;20128;-73
2022/01/19 14:36:38;;;;;;;87.07;39.33;;;;;;;;;;5060064;28;20041;-72
2022/01/19 14:39:04;;;;;;;75.32;33.70;;;;;;;;;;5062888;28;20123;-72
2022/01/19 14:41:34;;;;;;;81.18;37.63;;;;;;;;;;5065970;28;20040;-72
2022/01/19 14:44:05;;;;;;;83.75;38.08;;;;;;;;;;5066720;28;20503;-72
2022/01/19 14:46:55;;;;;;;83.22;36.00;;;;;;;;;;5069446;28;20047;-72
2022/01/19 14:49:28;;;;;;;93.65;39.05;;;;;;;;;;5057935;28;20045;-72
2022/01/19 14:51:54;;;;;;;82.13;36.72;;;;;;;;;;5065157;28;20045;-72
2022/01/19 14:54:20;;;;;;;102.63;39.90;;;;;;;;;;5053673;28;20043;-73
2022/01/19 14:56:47;;;;;;;91.72;38.33;;;;;;;;;;5072960;28;20443;-74
2022/01/19 14:59:14;;;;;;;89.78;38.35;;;;;;;;;;5072539;28;20056;-74
2022/01/19 15:01:42;;;;;;;84.50;37.60;;;;;;;;;;5070012;28;20048;-74
2022/01/19 15:04:08;;;;;;;93.43;38.58;;;;;;;;;;5066186;28;20028;-74
2022/01/19 15:06:34;;;;;;;95.75;38.00;;;;;;;;;;5063665;28;20040;-74
2022/01/19 15:09:01;;;;;;;88.72;37.28;;;;;;;;;;5074260;28;20047;-75
2022/01/19 15:11:27;;;;;;;93.35;38.13;;;;;;;;;;5087182;28;20036;-73
2022/01/19 15:13:53;;;;;;;82.65;36.65;;;;;;;;;;5054040;28;20033;-74
2022/01/19 15:16:20;;;;;;;76.57;33.53;;;;;;;;;;5070218;28;20654;-77
2022/01/19 15:18:46;;;;;;;82.30;35.72;;;;;;;;;;5069467;28;20049;-73
2022/01/19 15:21:13;;;;;;;76.18;33.35;;;;;;;;;;5065374;28;20043;-73
2022/01/19 15:23:39;;;;;;;83.25;35.33;;;;;;;;;;5073563;28;20167;-73
2022/01/19 15:26:06;;;;;;;84.90;35.85;;;;;;;;;;5065178;28;20032;-74
2022/01/19 15:28:32;;;;;;;89.13;44.53;;;;;;;;;;5071556;28;20040;-74
2022/01/19 15:30:58;;;;;;;141.05;79.07;;;;;;;;;;5061847;28;20036;-74
2022/01/19 15:33:24;;;;;;;91.80;43.33;;;;;;;;;;5061153;28;20048;-74
2022/01/19 15:35:51;;;;;;;91.10;38.85;;;;;;;;;;5059681;28;20032;-74
2022/01/19 15:38:18;;;;;;;71.55;31.27;;;;;;;;;;5065144;28;20028;-74
2022/01/19 15:40:44;;;;;;;92.85;42.80;;;;;;;;;;5054677;28;20048;-74
2022/01/19 15:43:14;;;;;;;82.38;33.70;;;;;;;;;;5063524;28;20044;-74